createdAt,value
2018-06-23T00:01:04.431Z,67.70
2018-06-23T00:03:32.652Z,67.80
2018-06-23T00:06:00.884Z,67.80
2018-06-23T00:08:29.446Z,67.90
2018-06-23T00:10:57.758Z,67.80
2018-06-23T00:13:26.053Z,67.80
2018-06-23T00:15:54.425Z,67.80
2018-06-23T00:18:22.732Z,67.80
2018-06-23T00:20:50.942Z,67.90
2018-06-23T00:23:19.928Z,67.90
2018-06-23T00:25:54.702Z,67.90
2018-06-23T00:28:23.027Z,67.90
2018-06-23T00:30:51.258Z,68.00
2018-06-23T00:35:47.514Z,68.00
2018-06-23T00:38:15.854Z,67.90
2018-06-23T00:40:44.103Z,68.00
2018-06-23T00:43:13.002Z,68.00
2018-06-23T00:45:41.280Z,67.90
2018-06-23T00:48:09.508Z,68.00
2018-06-23T00:50:37.797Z,68.00
2018-06-23T00:53:06.062Z,68.00
2018-06-23T00:55:34.286Z,67.90
2018-06-23T00:58:02.627Z,67.90
2018-06-23T01:00:30.871Z,68.00
2018-06-23T01:02:59.168Z,68.00
2018-06-23T01:05:28.623Z,68.00
2018-06-23T01:07:56.871Z,68.00
2018-06-23T01:10:25.181Z,67.90
2018-06-23T01:12:53.620Z,68.00
2018-06-23T01:15:21.838Z,68.60
2018-06-23T01:17:50.059Z,68.00
2018-06-23T01:20:18.699Z,68.00
2018-06-23T01:22:46.933Z,67.90
2018-06-23T01:25:15.146Z,68.00
2018-06-23T01:27:44.546Z,68.00
2018-06-23T01:30:12.759Z,68.70
2018-06-23T01:32:40.981Z,68.00
2018-06-23T01:35:13.366Z,68.00
2018-06-23T01:37:41.674Z,68.00
2018-06-23T01:40:10.002Z,68.00
2018-06-23T01:42:38.297Z,68.30
2018-06-23T01:45:06.533Z,68.00
2018-06-23T01:47:34.822Z,68.00
2018-06-23T01:50:04.262Z,68.00
2018-06-23T01:52:32.483Z,68.00
2018-06-23T01:57:28.805Z,68.00
2018-06-23T01:59:57.113Z,68.00
2018-06-23T02:02:25.343Z,68.10
2018-06-23T02:04:54.128Z,68.00
2018-06-23T02:07:22.383Z,68.00
2018-06-23T02:09:50.600Z,68.00
2018-06-23T02:12:19.365Z,68.00
2018-06-23T02:15:25.086Z,68.00
2018-06-23T02:17:59.133Z,68.00
2018-06-23T02:20:32.830Z,68.00
2018-06-23T02:23:06.743Z,68.00
2018-06-23T02:25:40.361Z,68.00
2018-06-23T02:28:15.387Z,68.00
2018-06-23T02:30:48.868Z,68.00
2018-06-23T02:33:22.656Z,68.00
2018-06-23T02:35:50.898Z,68.00
2018-06-23T02:38:19.125Z,68.00
2018-06-23T02:40:47.381Z,68.00
2018-06-23T02:43:15.698Z,68.00
2018-06-23T02:45:44.077Z,68.00
2018-06-23T02:48:14.287Z,68.00
2018-06-23T02:50:42.506Z,68.00
2018-06-23T02:53:10.738Z,67.90
2018-06-23T02:55:39.438Z,68.00
2018-06-23T02:58:07.664Z,68.00
2018-06-23T03:00:35.871Z,68.00
2018-06-23T03:03:04.453Z,68.00
2018-06-23T03:05:32.678Z,68.00
2018-06-23T03:08:00.918Z,68.00
2018-06-23T03:10:29.495Z,68.00
2018-06-23T03:12:57.807Z,68.00
2018-06-23T03:15:26.087Z,68.00
2018-06-23T03:17:54.429Z,68.00
2018-06-23T03:20:22.641Z,68.00
2018-06-23T03:22:50.871Z,68.00
2018-06-23T03:25:20.078Z,68.00
2018-06-23T03:27:52.169Z,68.00
2018-06-23T03:30:21.105Z,68.00
2018-06-23T03:32:49.324Z,67.90
2018-06-23T03:35:17.537Z,67.90
2018-06-23T03:37:45.890Z,68.00
2018-06-23T03:40:14.118Z,67.90
2018-06-23T03:42:42.326Z,67.90
2018-06-23T03:45:10.663Z,67.90
2018-06-23T03:47:38.999Z,67.90
2018-06-23T03:50:07.241Z,68.10
2018-06-23T03:52:36.449Z,67.90
2018-06-23T03:55:04.721Z,67.90
2018-06-23T03:57:32.949Z,67.90
2018-06-23T04:00:01.189Z,67.90
2018-06-23T04:02:29.405Z,67.90
2018-06-23T04:07:25.698Z,68.00
2018-06-23T04:09:53.917Z,67.90
2018-06-23T04:12:22.202Z,67.90
2018-06-23T04:14:51.027Z,67.90
2018-06-23T04:17:19.241Z,67.80
2018-06-23T04:19:47.487Z,67.80
2018-06-23T04:22:15.785Z,67.90
2018-06-23T04:24:44.010Z,67.90
2018-06-23T04:27:12.315Z,67.90
2018-06-23T04:29:41.666Z,67.90
2018-06-23T04:34:37.841Z,68.00
2018-06-23T04:37:07.688Z,68.00
2018-06-23T04:39:36.137Z,68.00
2018-06-23T04:42:04.374Z,68.00
2018-06-23T04:44:32.919Z,68.00
2018-06-23T04:47:01.143Z,68.70
2018-06-23T04:49:29.370Z,67.90
2018-06-23T04:51:58.685Z,68.00
2018-06-23T04:54:26.918Z,68.00
2018-06-23T04:56:55.137Z,67.90
2018-06-23T04:59:23.614Z,67.50
2018-06-23T05:01:52.368Z,68.00
2018-06-23T05:04:20.584Z,68.00
2018-06-23T05:06:49.469Z,68.00
2018-06-23T05:09:17.691Z,68.00
2018-06-23T05:16:42.738Z,68.00
2018-06-23T05:19:11.026Z,68.00
2018-06-23T05:21:39.537Z,68.00
2018-06-23T05:24:07.754Z,68.10
2018-06-23T05:26:36.038Z,68.00
2018-06-23T05:29:04.675Z,68.10
2018-06-23T05:31:33.549Z,68.00
2018-06-23T05:34:01.860Z,68.10
2018-06-23T05:36:30.099Z,68.10
2018-06-23T05:38:58.310Z,68.00
2018-06-23T05:41:26.590Z,68.10
2018-06-23T05:43:55.087Z,68.10
2018-06-23T05:46:23.319Z,68.00
2018-06-23T05:48:51.819Z,68.20
2018-06-23T05:51:20.138Z,68.20
2018-06-23T05:53:48.457Z,68.20
2018-06-23T05:56:17.362Z,68.20
2018-06-23T05:58:45.582Z,68.20
2018-06-23T06:01:13.878Z,68.20
2018-06-23T06:03:42.141Z,68.20
2018-06-23T06:06:10.395Z,68.20
2018-06-23T06:08:38.641Z,68.20
2018-06-23T06:11:06.954Z,68.20
2018-06-23T06:13:35.162Z,68.30
2018-06-23T06:16:03.425Z,68.40
2018-06-23T06:18:32.206Z,68.50
2018-06-23T06:21:00.438Z,68.50
2018-06-23T06:23:28.768Z,68.70
2018-06-23T06:25:57.193Z,68.90
2018-06-23T06:28:25.448Z,68.90
2018-06-23T06:30:53.742Z,69.20
2018-06-23T06:33:22.942Z,69.30
2018-06-23T06:35:51.296Z,69.40
2018-06-23T06:38:19.643Z,69.60
2018-06-23T06:40:48.793Z,69.80
2018-06-23T06:43:17.135Z,69.90
2018-06-23T06:45:45.379Z,70.30
2018-06-23T06:48:13.842Z,70.70
2018-06-23T06:50:42.059Z,71.00
2018-06-23T06:53:10.474Z,71.20
2018-06-23T06:55:38.867Z,71.80
2018-06-23T06:58:07.304Z,72.00
2018-06-23T07:00:35.854Z,72.20
2018-06-23T07:03:04.111Z,72.70
2018-06-23T07:05:32.354Z,73.00
2018-06-23T07:08:00.660Z,73.20
2018-06-23T07:10:28.903Z,73.70
2018-06-23T07:12:57.119Z,73.90
2018-06-23T07:15:26.436Z,73.90
2018-06-23T07:17:54.740Z,74.00
2018-06-23T07:20:22.988Z,74.40
2018-06-23T07:22:52.579Z,74.80
2018-06-23T07:25:20.808Z,74.70
2018-06-23T07:27:49.079Z,74.60
2018-06-23T07:30:17.620Z,73.40
2018-06-23T07:32:45.857Z,73.00
2018-06-23T07:35:15.267Z,72.90
2018-06-23T07:37:43.382Z,72.60
2018-06-23T07:40:11.643Z,72.30
2018-06-23T07:42:39.878Z,72.00
2018-06-23T07:45:08.613Z,71.70
2018-06-23T07:47:36.886Z,71.60
2018-06-23T07:50:05.301Z,71.40
2018-06-23T07:52:33.697Z,70.70
2018-06-23T07:55:01.984Z,67.50
2018-06-23T07:57:30.222Z,62.20
2018-06-23T07:59:58.531Z,62.30
2018-06-23T08:02:26.773Z,59.10
2018-06-23T08:04:55.026Z,59.80
2018-06-23T08:07:23.937Z,61.60
2018-06-23T08:09:52.203Z,62.80
2018-06-23T08:12:20.457Z,63.50
2018-06-23T08:14:49.062Z,64.10
2018-06-23T08:17:17.287Z,64.70
2018-06-23T08:19:45.530Z,65.20
2018-06-23T08:22:13.810Z,65.40
2018-06-23T08:24:42.134Z,65.90
2018-06-23T08:27:10.355Z,66.20
2018-06-23T08:29:39.129Z,66.40
2018-06-23T08:32:07.389Z,66.50
2018-06-23T08:34:35.607Z,66.70
2018-06-23T08:37:04.655Z,66.80
2018-06-23T08:39:32.892Z,66.90
2018-06-23T08:42:01.134Z,67.10
2018-06-23T08:44:29.400Z,63.50
2018-06-23T08:46:57.899Z,63.50
2018-06-23T08:49:26.153Z,64.10
2018-06-23T08:51:55.158Z,65.40
2018-06-23T08:54:23.407Z,65.90
2018-06-23T08:56:51.669Z,66.20
2018-06-23T08:59:20.094Z,66.30
2018-06-23T09:01:48.330Z,66.50
2018-06-23T09:04:16.550Z,66.60
2018-06-23T09:06:44.869Z,66.10
2018-06-23T09:09:13.095Z,66.70
2018-06-23T09:11:41.347Z,66.80
2018-06-23T09:14:10.472Z,66.80
2018-06-23T09:16:38.905Z,66.90
2018-06-23T09:19:07.148Z,67.00
2018-06-23T09:21:35.469Z,67.50
2018-06-23T09:24:03.702Z,67.00
2018-06-23T09:26:31.990Z,67.10
2018-06-23T09:29:00.316Z,67.10
2018-06-23T09:31:28.547Z,67.10
2018-06-23T09:33:56.780Z,67.20
2018-06-23T09:36:25.890Z,67.20
2018-06-23T09:38:55.110Z,67.20
2018-06-23T09:41:23.335Z,67.20
2018-06-23T09:43:52.454Z,67.30
2018-06-23T09:46:20.722Z,67.20
2018-06-23T09:48:48.974Z,67.00
2018-06-23T09:51:17.700Z,67.10
2018-06-23T09:53:45.950Z,67.10
2018-06-23T09:56:14.235Z,67.10
2018-06-23T09:58:42.962Z,67.10
2018-06-23T10:01:11.212Z,67.10
2018-06-23T10:03:39.450Z,67.00
2018-06-23T10:06:07.896Z,67.10
2018-06-23T10:08:36.245Z,67.20
2018-06-23T10:11:04.419Z,67.60
2018-06-23T10:13:32.839Z,67.20
2018-06-23T10:16:01.164Z,67.20
2018-06-23T10:18:29.387Z,67.20
2018-06-23T10:20:57.936Z,67.30
2018-06-23T10:23:26.187Z,67.20
2018-06-23T10:25:54.441Z,67.30
2018-06-23T10:28:22.975Z,67.90
2018-06-23T10:30:51.238Z,67.20
2018-06-23T10:33:19.496Z,67.10
2018-06-23T10:35:51.008Z,67.10
2018-06-23T10:38:19.287Z,67.10
2018-06-23T10:40:48.198Z,67.10
2018-06-23T10:43:16.623Z,67.20
2018-06-23T10:45:44.883Z,67.10
2018-06-23T10:48:13.151Z,67.20
2018-06-23T10:50:41.438Z,67.20
2018-06-23T10:53:09.665Z,67.20
2018-06-23T11:00:34.804Z,67.20
2018-06-23T11:03:03.035Z,67.20
2018-06-23T11:05:31.310Z,67.10
2018-06-23T11:07:59.558Z,66.90
2018-06-23T11:10:27.787Z,66.90
2018-06-23T11:12:56.111Z,66.40
2018-06-23T11:15:24.388Z,66.30
2018-06-23T11:17:52.630Z,66.30
2018-06-23T11:20:21.692Z,66.50
2018-06-23T11:22:49.988Z,67.00
2018-06-23T11:25:18.231Z,66.50
2018-06-23T11:27:47.519Z,66.50
2018-06-23T11:30:15.782Z,66.90
2018-06-23T11:32:44.113Z,67.00
2018-06-23T11:35:12.488Z,67.20
2018-06-23T11:37:40.794Z,67.20
2018-06-23T11:40:09.092Z,67.40
2018-06-23T11:42:38.550Z,67.60
2018-06-23T11:45:06.826Z,67.40
2018-06-23T11:47:35.074Z,67.50
2018-06-23T11:50:03.493Z,67.40
2018-06-23T11:52:31.830Z,67.70
2018-06-23T11:55:00.037Z,67.70
2018-06-23T11:57:28.547Z,67.80
2018-06-23T11:59:56.789Z,68.10
2018-06-23T12:02:25.054Z,68.00
2018-06-23T12:04:53.954Z,68.20
2018-06-23T12:07:22.244Z,68.20
2018-06-23T12:09:50.520Z,68.30
2018-06-23T12:12:18.819Z,68.40
2018-06-23T12:14:47.084Z,68.60
2018-06-23T12:17:15.369Z,68.50
2018-06-23T12:19:43.933Z,67.30
2018-06-23T12:22:12.172Z,67.00
2018-06-23T12:24:40.465Z,66.10
2018-06-23T12:27:09.477Z,66.60
2018-06-23T12:29:38.238Z,67.10
2018-06-23T12:32:06.534Z,67.00
2018-06-23T12:34:34.975Z,67.40
2018-06-23T12:37:03.228Z,66.80
2018-06-23T12:41:59.564Z,67.80
2018-06-23T12:44:28.546Z,67.80
2018-06-23T12:46:56.803Z,69.20
2018-06-23T12:49:25.120Z,69.10
2018-06-23T12:51:53.390Z,72.10
2018-06-23T12:54:21.638Z,73.50
2018-06-23T12:56:50.070Z,74.80
2018-06-23T12:59:18.322Z,76.50
2018-06-23T13:01:46.570Z,78.60
2018-06-23T13:04:15.194Z,78.10
2018-06-23T13:06:43.410Z,78.50
2018-06-23T13:09:12.607Z,80.00
2018-06-23T13:11:41.635Z,82.10
2018-06-23T13:14:09.935Z,81.90
2018-06-23T13:16:38.204Z,82.90
2018-06-23T13:19:06.669Z,82.10
2018-06-23T13:21:34.958Z,82.50
2018-06-23T13:24:03.215Z,83.40
2018-06-23T13:26:32.358Z,82.10
2018-06-23T13:29:00.627Z,81.20
2018-06-23T13:31:28.878Z,78.40
2018-06-23T13:33:57.186Z,74.20
2018-06-23T13:36:25.477Z,69.40
2018-06-23T13:38:53.741Z,66.40
2018-06-23T13:43:50.864Z,67.00
2018-06-23T13:46:20.330Z,67.70
2018-06-23T13:48:49.680Z,67.20
2018-06-23T13:51:18.315Z,65.50
2018-06-23T13:53:46.574Z,64.40
2018-06-23T13:56:14.921Z,64.90
2018-06-23T13:58:43.171Z,63.60
2018-06-23T14:01:11.394Z,64.40
2018-06-23T14:03:40.170Z,65.00
2018-06-23T14:06:08.459Z,67.40
2018-06-23T14:08:36.777Z,67.30
2018-06-23T14:11:05.053Z,68.10
2018-06-23T14:13:33.386Z,68.60
2018-06-23T14:16:01.627Z,69.30
2018-06-23T14:18:29.912Z,69.40
2018-06-23T14:20:58.162Z,70.10
2018-06-23T14:23:26.423Z,70.50
2018-06-23T14:25:55.249Z,71.20
2018-06-23T14:28:23.491Z,71.30
2018-06-23T14:30:51.767Z,70.90
2018-06-23T14:38:16.052Z,71.20
2018-06-23T14:40:44.480Z,70.90
2018-06-23T14:43:12.732Z,71.00
2018-06-23T14:45:40.990Z,71.20
2018-06-23T14:48:10.162Z,71.50
2018-06-23T14:50:38.433Z,71.90
2018-06-23T14:53:06.714Z,72.10
2018-06-23T14:55:35.231Z,72.20
2018-06-23T14:58:03.518Z,72.30
2018-06-23T15:00:31.776Z,72.20
2018-06-23T15:03:00.069Z,72.30
2018-06-23T15:10:41.282Z,72.50
2018-06-23T15:13:16.246Z,73.30
2018-06-23T15:15:44.783Z,72.70
2018-06-23T15:18:13.186Z,72.80
2018-06-23T15:20:41.746Z,72.80
2018-06-23T15:23:10.627Z,73.00
2018-06-23T15:25:39.889Z,73.20
2018-06-23T15:30:36.453Z,75.30
2018-06-23T15:33:04.790Z,75.80
2018-06-23T15:35:33.127Z,76.60
2018-06-23T15:38:01.405Z,74.80
2018-06-23T15:40:29.722Z,75.80
2018-06-23T15:42:58.887Z,75.00
2018-06-23T15:45:27.135Z,75.50
2018-06-23T15:47:55.407Z,76.90
2018-06-23T15:50:24.847Z,77.50
2018-06-23T15:52:53.094Z,77.10
2018-06-23T15:55:21.358Z,77.60
2018-06-23T15:57:49.657Z,77.00
2018-06-23T16:00:17.910Z,76.30
2018-06-23T16:02:46.151Z,76.10
2018-06-23T16:05:15.323Z,75.90
2018-06-23T16:07:45.231Z,75.90
2018-06-23T16:10:20.219Z,75.60
2018-06-23T16:12:48.459Z,75.70
2018-06-23T16:15:17.046Z,75.00
2018-06-23T16:17:45.371Z,69.60
2018-06-23T16:20:13.823Z,67.70
2018-06-23T16:25:11.060Z,62.90
2018-06-23T16:27:39.335Z,68.30
2018-06-23T16:30:07.602Z,64.90
2018-06-23T16:32:35.894Z,68.80
2018-06-23T16:35:04.271Z,69.80
2018-06-23T16:37:32.422Z,68.50
2018-06-23T16:40:00.818Z,68.60
2018-06-23T16:42:29.353Z,68.50
2018-06-23T16:44:57.839Z,68.40
2018-06-23T16:47:26.686Z,68.40
2018-06-23T16:49:54.943Z,68.40
2018-06-23T16:52:23.775Z,68.30
2018-06-23T16:54:52.635Z,68.30
2018-06-23T16:57:20.900Z,68.90
2018-06-23T16:59:49.158Z,68.20
2018-06-23T17:02:17.449Z,68.00
2018-06-23T17:04:45.753Z,68.20
2018-06-23T17:07:14.058Z,67.50
2018-06-23T17:09:44.353Z,67.30
2018-06-23T17:12:12.862Z,68.30
2018-06-23T17:14:41.116Z,68.70
2018-06-23T17:17:09.591Z,68.90
2018-06-23T17:19:37.959Z,69.30
2018-06-23T17:22:06.140Z,68.70
2018-06-23T17:24:34.616Z,69.20
2018-06-23T17:27:02.895Z,69.60
2018-06-23T17:29:31.122Z,70.00
2018-06-23T17:32:00.065Z,70.30
2018-06-23T17:34:28.307Z,70.60
2018-06-23T17:36:56.557Z,70.10
2018-06-23T17:39:25.207Z,70.60
2018-06-23T17:41:53.566Z,71.20
2018-06-23T17:44:21.797Z,71.70
2018-06-23T17:46:50.946Z,72.60
2018-06-23T17:49:19.202Z,73.30
2018-06-23T17:51:47.431Z,72.30
2018-06-23T17:54:15.922Z,72.30
2018-06-23T17:59:12.202Z,72.70
2018-06-23T18:01:40.471Z,73.00
2018-06-23T18:04:08.843Z,72.50
2018-06-23T18:06:37.093Z,72.10
2018-06-23T18:09:11.095Z,72.80
2018-06-23T18:11:40.010Z,73.10
2018-06-23T18:14:08.704Z,73.10
2018-06-23T18:16:37.024Z,73.60
2018-06-23T18:19:05.959Z,75.20
2018-06-23T18:21:34.735Z,75.80
2018-06-23T18:24:02.978Z,76.40
2018-06-23T18:26:31.237Z,76.90
2018-06-23T18:29:00.294Z,77.40
2018-06-23T18:31:28.650Z,77.50
2018-06-23T18:33:56.898Z,77.50
2018-06-23T18:36:25.502Z,78.00
2018-06-23T18:38:53.852Z,78.90
2018-06-23T18:41:22.070Z,78.50
2018-06-23T18:43:50.388Z,79.10
2018-06-23T18:46:18.630Z,78.80
2018-06-23T18:48:46.896Z,78.90
2018-06-23T18:51:16.083Z,78.70
2018-06-23T18:53:44.347Z,78.90
2018-06-23T18:56:12.623Z,79.30
2018-06-23T18:58:40.918Z,80.20
2018-06-23T19:01:09.174Z,80.30
2018-06-23T19:03:37.465Z,80.90
2018-06-23T19:06:06.223Z,79.60
2018-06-23T19:08:36.287Z,79.20
2018-06-23T19:11:04.675Z,79.60
2018-06-23T19:13:33.235Z,80.30
2018-06-23T19:16:01.474Z,80.10
2018-06-23T19:18:29.879Z,80.10
2018-06-23T19:20:58.468Z,80.20
2018-06-23T19:23:26.729Z,80.30
2018-06-23T19:25:55.063Z,80.30
2018-06-23T19:28:23.892Z,80.40
2018-06-23T19:30:52.371Z,80.40
2018-06-23T19:33:20.682Z,80.50
2018-06-23T19:35:48.972Z,81.80
2018-06-23T19:38:17.196Z,82.10
2018-06-23T19:40:45.499Z,81.50
2018-06-23T19:43:14.824Z,81.60
2018-06-23T19:45:43.103Z,81.60
2018-06-23T19:48:11.442Z,81.40
2018-06-23T19:50:40.109Z,82.30
2018-06-23T19:53:08.379Z,82.30
2018-06-23T19:55:36.620Z,83.10
2018-06-23T19:58:05.082Z,83.00
2018-06-23T20:00:33.340Z,83.90
2018-06-23T20:03:01.812Z,83.70
2018-06-23T20:05:30.581Z,82.60
2018-06-23T20:07:59.935Z,82.40
2018-06-23T20:10:28.494Z,82.40
2018-06-23T20:12:57.207Z,82.00
2018-06-23T20:15:25.462Z,81.40
2018-06-23T20:17:53.727Z,81.70
2018-06-23T20:20:22.572Z,81.50
2018-06-23T20:22:50.984Z,81.40
2018-06-23T20:25:19.259Z,81.40
2018-06-23T20:27:47.799Z,81.20
2018-06-23T20:30:16.073Z,81.20
2018-06-23T20:32:44.324Z,81.00
2018-06-23T20:35:12.944Z,81.00
2018-06-23T20:37:41.198Z,80.80
2018-06-23T20:40:09.441Z,80.70
2018-06-23T20:42:38.014Z,80.60
2018-06-23T20:45:06.550Z,80.50
2018-06-23T20:47:34.816Z,80.40
2018-06-23T20:50:03.611Z,81.00
2018-06-23T20:52:31.880Z,80.30
2018-06-23T20:55:00.308Z,80.60
2018-06-23T20:59:56.806Z,80.10
2018-06-23T21:02:25.078Z,79.80
2018-06-23T21:04:53.774Z,79.80
2018-06-23T21:07:25.313Z,79.90
2018-06-23T21:09:53.530Z,79.90
2018-06-23T21:12:22.402Z,79.90
2018-06-23T21:14:50.661Z,79.80
2018-06-23T21:17:18.920Z,79.80
2018-06-23T21:19:47.332Z,79.80
2018-06-23T21:22:15.594Z,79.80
2018-06-23T21:24:43.810Z,79.70
2018-06-23T21:27:12.678Z,79.70
2018-06-23T21:29:40.910Z,79.70
2018-06-23T21:32:09.184Z,79.70
2018-06-23T21:34:37.502Z,79.60
2018-06-23T21:37:05.775Z,79.60
2018-06-23T21:39:34.061Z,79.60
2018-06-23T21:42:02.335Z,79.60
2018-06-23T21:44:30.752Z,79.60
2018-06-23T21:46:58.986Z,79.60
2018-06-23T21:49:27.693Z,79.50
2018-06-23T21:51:55.951Z,79.60
2018-06-23T21:54:24.232Z,79.50
2018-06-23T21:56:52.723Z,79.60
2018-06-23T21:59:20.979Z,79.50
2018-06-23T22:01:49.233Z,79.40
2018-06-23T22:04:17.763Z,79.40
2018-06-23T22:06:46.396Z,79.40
2018-06-23T22:09:29.879Z,79.30
2018-06-23T22:11:58.160Z,79.20
2018-06-23T22:14:26.378Z,79.30
2018-06-23T22:16:54.782Z,79.90
2018-06-23T22:19:23.325Z,79.20
2018-06-23T22:24:19.948Z,79.20
2018-06-23T22:26:48.180Z,79.20
2018-06-23T22:29:16.541Z,79.20
2018-06-23T22:31:46.005Z,79.20
2018-06-23T22:34:14.227Z,79.10
2018-06-23T22:36:42.482Z,79.10
2018-06-23T22:39:12.501Z,79.20
2018-06-23T22:41:40.762Z,79.10
2018-06-23T22:44:09.266Z,79.20
2018-06-23T22:49:05.765Z,79.10
2018-06-23T22:51:34.007Z,79.00
2018-06-23T22:54:03.155Z,79.10
2018-06-23T22:56:31.434Z,79.20
2018-06-23T22:58:59.696Z,79.10
2018-06-23T23:01:28.242Z,79.10
2018-06-23T23:03:56.482Z,79.10
2018-06-23T23:06:24.729Z,79.20
2018-06-23T23:08:54.770Z,79.20
2018-06-23T23:11:23.565Z,79.20
2018-06-23T23:13:51.833Z,79.80
2018-06-23T23:16:20.106Z,79.70
2018-06-23T23:18:48.338Z,79.50
2018-06-23T23:21:17.010Z,79.50
2018-06-23T23:26:13.214Z,79.30
2018-06-23T23:28:41.654Z,79.20
2018-06-23T23:31:09.917Z,79.20
2018-06-23T23:33:38.146Z,79.10
2018-06-23T23:36:06.463Z,78.90
2018-06-23T23:38:34.748Z,78.90
2018-06-23T23:41:03.015Z,78.80
2018-06-23T23:43:31.661Z,78.70
2018-06-23T23:45:59.914Z,78.60
2018-06-23T23:48:28.142Z,78.60
2018-06-23T23:50:56.694Z,78.50
2018-06-23T23:53:24.943Z,78.40
2018-06-23T23:55:53.189Z,78.30
2018-06-23T23:58:21.442Z,78.10
